createdAt,value
2023-01-01T00:02:04.137Z,72.60
2023-01-01T00:04:31.871Z,72.60
2023-01-01T00:06:58.462Z,72.70
2023-01-01T00:09:45.298Z,72.60
2023-01-01T00:12:11.945Z,72.60
2023-01-01T00:14:39.358Z,72.60
2023-01-01T00:17:05.957Z,72.70
2023-01-01T00:19:32.732Z,72.90
2023-01-01T00:22:02.114Z,72.80
2023-01-01T00:24:36.632Z,72.80
2023-01-01T00:27:03.287Z,72.70
2023-01-01T00:29:29.946Z,72.70
2023-01-01T00:31:56.549Z,72.70
2023-01-01T00:34:23.199Z,72.70
2023-01-01T00:36:49.838Z,72.70
2023-01-01T00:39:16.566Z,72.70
2023-01-01T00:41:43.165Z,72.60
2023-01-01T00:44:10.802Z,72.60
2023-01-01T00:46:37.473Z,72.60
2023-01-01T00:49:04.141Z,72.60
2023-01-01T00:51:36.690Z,72.60
2023-01-01T00:54:03.949Z,72.70
2023-01-01T00:56:30.597Z,72.70
2023-01-01T00:59:01.276Z,72.70
2023-01-01T01:01:28.928Z,72.70
2023-01-01T01:03:55.649Z,72.70
2023-01-01T01:06:22.422Z,72.70
2023-01-01T01:08:49.059Z,72.80
2023-01-01T01:11:21.302Z,72.90
2023-01-01T01:13:50.231Z,73.00
2023-01-01T01:16:41.693Z,73.00
2023-01-01T01:19:13.818Z,73.10
2023-01-01T01:21:40.561Z,73.10
2023-01-01T01:24:07.593Z,73.10
2023-01-01T01:26:36.542Z,73.10
2023-01-01T01:29:03.625Z,73.20
2023-01-01T01:31:33.027Z,73.20
2023-01-01T01:33:59.645Z,73.20
2023-01-01T01:36:26.937Z,73.20
2023-01-01T01:38:53.721Z,73.20
2023-01-01T01:41:30.024Z,73.20
2023-01-01T01:44:24.653Z,73.20
2023-01-01T01:46:51.407Z,73.30
2023-01-01T01:49:26.216Z,73.20
2023-01-01T01:51:53.848Z,73.30
2023-01-01T01:54:24.265Z,73.20
2023-01-01T01:57:03.656Z,73.20
2023-01-01T01:59:33.640Z,73.50
2023-01-01T02:02:01.284Z,73.50
2023-01-01T02:04:28.629Z,73.50
2023-01-01T02:06:55.865Z,73.50
2023-01-01T02:09:23.067Z,73.60
2023-01-01T02:11:49.711Z,73.60
2023-01-01T02:14:16.393Z,73.70
2023-01-01T02:16:56.838Z,73.80
2023-01-01T02:19:35.550Z,73.90
2023-01-01T02:22:26.311Z,73.90
2023-01-01T02:25:11.762Z,73.90
2023-01-01T02:27:59.207Z,74.00
2023-01-01T02:30:29.015Z,74.10
2023-01-01T02:33:09.130Z,74.00
2023-01-01T02:35:42.451Z,74.00
2023-01-01T02:38:27.964Z,74.10
2023-01-01T02:41:02.183Z,73.90
2023-01-01T02:43:29.275Z,74.00
2023-01-01T02:45:56.903Z,73.90
2023-01-01T02:48:41.636Z,74.00
2023-01-01T02:51:38.253Z,74.10
2023-01-01T02:54:46.389Z,74.10
2023-01-01T02:57:36.385Z,74.20
2023-01-01T03:00:24.393Z,74.20
2023-01-01T03:03:19.240Z,74.20
2023-01-01T03:06:23.332Z,74.20
2023-01-01T03:09:11.051Z,74.30
2023-01-01T03:11:45.753Z,74.30
2023-01-01T03:14:44.047Z,74.30
2023-01-01T03:17:29.465Z,74.50
2023-01-01T03:19:58.984Z,74.40
2023-01-01T03:22:31.646Z,74.40
2023-01-01T03:25:19.572Z,74.50
2023-01-01T03:28:10.349Z,74.60
2023-01-01T03:30:39.643Z,74.70
2023-01-01T03:33:29.044Z,74.60
2023-01-01T03:36:21.923Z,74.80
2023-01-01T03:38:59.136Z,74.80
2023-01-01T03:41:39.636Z,74.80
2023-01-01T03:44:18.814Z,74.80
2023-01-01T03:46:46.309Z,74.90
2023-01-01T03:49:13.811Z,74.80
2023-01-01T03:52:00.447Z,74.80
2023-01-01T03:54:58.571Z,74.90
2023-01-01T03:57:40.213Z,74.80
2023-01-01T04:00:16.352Z,74.80
2023-01-01T04:02:50.363Z,74.80
2023-01-01T04:05:18.801Z,74.80
2023-01-01T04:10:17.681Z,74.90
2023-01-01T04:12:48.891Z,74.90
2023-01-01T04:15:20.881Z,75.00
2023-01-01T04:17:47.898Z,75.00
2023-01-01T04:20:14.872Z,75.00
2023-01-01T04:22:41.734Z,75.10
2023-01-01T04:25:09.963Z,75.10
2023-01-01T04:27:37.631Z,75.10
2023-01-01T04:30:06.216Z,75.10
2023-01-01T04:32:32.857Z,75.00
2023-01-01T04:34:59.509Z,75.00
2023-01-01T04:37:27.173Z,75.00
2023-01-01T04:39:54.079Z,75.10
2023-01-01T04:42:20.693Z,75.10
2023-01-01T04:44:47.307Z,75.00
2023-01-01T04:47:13.961Z,75.10
2023-01-01T04:49:40.589Z,75.10
2023-01-01T04:52:07.243Z,75.10
2023-01-01T04:54:33.879Z,75.20
2023-01-01T04:57:00.913Z,75.20
2023-01-01T04:59:29.720Z,75.20
2023-01-01T05:01:56.596Z,75.20
2023-01-01T05:04:23.321Z,75.20
2023-01-01T05:06:50.065Z,75.20
2023-01-01T05:09:16.702Z,75.30
2023-01-01T05:11:43.309Z,75.40
2023-01-01T05:14:10.077Z,75.30
2023-01-01T05:16:38.841Z,75.30
2023-01-01T05:19:06.427Z,75.30
2023-01-01T05:21:36.250Z,75.30
2023-01-01T05:24:05.458Z,75.30
2023-01-01T05:26:34.872Z,75.40
2023-01-01T05:29:02.027Z,75.50
2023-01-01T05:31:33.331Z,75.50
2023-01-01T05:36:32.319Z,75.60
2023-01-01T05:38:59.732Z,75.70
2023-01-01T05:41:27.050Z,75.60
2023-01-01T05:43:54.175Z,75.70
2023-01-01T05:46:23.714Z,75.70
2023-01-01T05:48:51.438Z,75.80
2023-01-01T05:51:21.005Z,75.70
2023-01-01T05:53:48.090Z,75.70
2023-01-01T05:56:16.069Z,75.70
2023-01-01T05:58:43.656Z,75.70
2023-01-01T06:01:13.098Z,75.70
2023-01-01T06:03:40.651Z,75.60
2023-01-01T06:06:15.816Z,75.50
2023-01-01T06:08:42.603Z,75.50
2023-01-01T06:11:12.657Z,75.50
2023-01-01T06:13:39.279Z,75.40
2023-01-01T06:16:06.401Z,75.30
2023-01-01T06:18:35.287Z,75.20
2023-01-01T06:21:07.137Z,75.20
2023-01-01T06:23:33.849Z,75.20
2023-01-01T06:26:07.891Z,75.20
2023-01-01T06:28:34.524Z,75.20
2023-01-01T06:31:05.422Z,75.20
2023-01-01T06:33:32.835Z,75.30
2023-01-01T06:36:01.986Z,75.30
2023-01-01T06:38:37.857Z,75.30
2023-01-01T06:41:06.988Z,75.30
2023-01-01T06:43:35.760Z,75.30
2023-01-01T06:46:06.953Z,75.40
2023-01-01T06:48:36.327Z,75.40
2023-01-01T06:51:20.912Z,75.40
2023-01-01T06:53:49.238Z,75.40
2023-01-01T06:56:16.293Z,75.40
2023-01-01T06:58:43.353Z,75.40
2023-01-01T07:01:31.896Z,75.40
2023-01-01T07:04:00.583Z,75.40
2023-01-01T07:06:28.732Z,75.40
2023-01-01T07:08:55.742Z,75.40
2023-01-01T07:11:23.007Z,75.40
2023-01-01T07:13:49.708Z,75.50
2023-01-01T07:16:16.503Z,75.40
2023-01-01T07:18:43.135Z,75.50
2023-01-01T07:21:38.049Z,75.50
2023-01-01T07:24:06.040Z,75.60
2023-01-01T07:26:33.917Z,75.50
2023-01-01T07:29:06.871Z,75.60
2023-01-01T07:31:38.539Z,75.60
2023-01-01T07:34:06.478Z,75.60
2023-01-01T07:36:33.523Z,75.60
2023-01-01T07:39:00.262Z,75.60
2023-01-01T07:41:26.872Z,75.60
2023-01-01T07:43:53.508Z,75.60
2023-01-01T07:46:20.262Z,75.50
2023-01-01T07:48:47.180Z,75.50
2023-01-01T07:51:13.917Z,75.50
2023-01-01T07:53:40.539Z,75.60
2023-01-01T07:56:08.369Z,75.60
2023-01-01T07:58:35.029Z,75.60
2023-01-01T08:01:01.716Z,75.50
2023-01-01T08:03:28.411Z,75.50
2023-01-01T08:05:55.108Z,75.40
2023-01-01T08:08:21.764Z,75.40
2023-01-01T08:10:48.386Z,75.40
2023-01-01T08:13:14.981Z,75.40
2023-01-01T08:15:41.598Z,75.40
2023-01-01T08:18:09.636Z,75.40
2023-01-01T08:20:36.284Z,75.40
2023-01-01T08:23:07.123Z,75.30
2023-01-01T08:25:35.042Z,75.30
2023-01-01T08:28:01.696Z,75.20
2023-01-01T08:30:28.436Z,75.20
2023-01-01T08:32:55.265Z,75.10
2023-01-01T08:35:21.844Z,75.10
2023-01-01T08:37:48.499Z,75.10
2023-01-01T08:40:15.152Z,75.00
2023-01-01T08:42:41.799Z,75.00
2023-01-01T08:45:09.128Z,75.00
2023-01-01T08:47:35.962Z,75.10
2023-01-01T08:50:02.607Z,75.00
2023-01-01T08:52:29.332Z,75.10
2023-01-01T08:54:56.021Z,75.00
2023-01-01T08:57:22.873Z,74.90
2023-01-01T08:59:49.527Z,74.80
2023-01-01T09:02:16.313Z,74.80
2023-01-01T09:04:43.048Z,74.70
2023-01-01T09:07:09.711Z,74.70
2023-01-01T09:09:36.340Z,74.60
2023-01-01T09:12:09.152Z,74.40
2023-01-01T09:14:35.888Z,74.30
2023-01-01T09:17:03.258Z,74.20
2023-01-01T09:19:29.888Z,74.20
2023-01-01T09:21:56.564Z,74.20
2023-01-01T09:24:23.292Z,74.10
2023-01-01T09:26:50.080Z,74.00
2023-01-01T09:29:21.647Z,73.90
2023-01-01T09:31:49.320Z,73.70
2023-01-01T09:34:17.822Z,73.40
2023-01-01T09:36:45.690Z,73.20
2023-01-01T09:39:15.308Z,73.00
2023-01-01T09:42:05.450Z,72.70
2023-01-01T09:45:16.993Z,72.40
2023-01-01T09:47:51.498Z,72.10
2023-01-01T09:50:22.745Z,71.90
2023-01-01T09:52:56.563Z,71.80
2023-01-01T09:55:38.337Z,71.80
2023-01-01T09:58:04.963Z,71.70
2023-01-01T10:00:34.256Z,71.40
2023-01-01T10:03:26.396Z,71.30
2023-01-01T10:06:22.590Z,71.10
2023-01-01T10:09:01.817Z,71.00
2023-01-01T10:11:43.785Z,70.90
2023-01-01T10:14:27.442Z,70.60
2023-01-01T10:16:56.610Z,70.50
2023-01-01T10:19:36.655Z,70.50
2023-01-01T10:22:34.948Z,70.20
2023-01-01T10:25:13.650Z,70.00
2023-01-01T10:27:57.138Z,69.90
2023-01-01T10:30:27.592Z,69.80
2023-01-01T10:32:55.886Z,69.70
2023-01-01T10:35:31.082Z,69.50
2023-01-01T10:38:02.274Z,69.30
2023-01-01T10:40:30.523Z,69.00
2023-01-01T10:42:59.164Z,68.60
2023-01-01T10:45:38.275Z,68.20
2023-01-01T10:48:19.931Z,67.50
2023-01-01T10:50:56.475Z,66.80
2023-01-01T10:53:43.111Z,66.30
2023-01-01T10:56:15.424Z,65.80
2023-01-01T10:58:56.081Z,65.40
2023-01-01T11:01:33.944Z,64.90
2023-01-01T11:04:01.933Z,64.30
2023-01-01T11:06:35.802Z,63.80
2023-01-01T11:09:27.246Z,62.40
2023-01-01T11:12:01.993Z,61.60
2023-01-01T11:14:40.893Z,61.30
2023-01-01T11:17:09.682Z,61.00
2023-01-01T11:19:38.042Z,61.10
2023-01-01T11:22:05.820Z,60.20
2023-01-01T11:24:34.350Z,60.00
2023-01-01T11:27:23.523Z,59.70
2023-01-01T11:29:54.694Z,59.20
2023-01-01T11:32:28.179Z,58.70
2023-01-01T11:35:03.570Z,58.30
2023-01-01T11:37:34.063Z,57.30
2023-01-01T11:40:01.707Z,57.20
2023-01-01T11:42:31.130Z,57.40
2023-01-01T11:45:37.809Z,56.70
2023-01-01T11:48:12.926Z,56.40
2023-01-01T11:50:41.662Z,56.00
2023-01-01T11:53:23.688Z,55.80
2023-01-01T11:56:06.222Z,54.90
2023-01-01T11:58:48.592Z,54.70
2023-01-01T12:01:49.346Z,54.40
2023-01-01T12:04:44.917Z,54.50
2023-01-01T12:07:16.797Z,54.10
2023-01-01T12:09:52.150Z,53.70
2023-01-01T12:12:25.052Z,53.30
2023-01-01T12:15:05.539Z,53.40
2023-01-01T12:17:39.736Z,53.10
2023-01-01T12:20:26.914Z,52.90
2023-01-01T12:22:57.834Z,52.40
2023-01-01T12:25:31.433Z,52.70
2023-01-01T12:28:33.931Z,52.60
2023-01-01T12:31:08.169Z,52.40
2023-01-01T12:34:01.178Z,52.50
2023-01-01T12:36:39.841Z,52.60
2023-01-01T12:39:25.101Z,52.60
2023-01-01T12:42:14.227Z,52.90
2023-01-01T12:45:11.990Z,52.60
2023-01-01T12:48:16.354Z,52.60
2023-01-01T12:51:13.807Z,52.80
2023-01-01T12:54:28.919Z,52.80
2023-01-01T12:57:14.162Z,52.80
2023-01-01T12:59:46.697Z,53.20
2023-01-01T13:02:23.882Z,52.90
2023-01-01T13:04:56.313Z,52.60
2023-01-01T13:07:42.939Z,52.50
2023-01-01T13:10:34.177Z,52.00
2023-01-01T13:13:01.607Z,52.00
2023-01-01T13:15:37.372Z,51.80
2023-01-01T13:18:07.480Z,51.30
2023-01-01T13:20:39.114Z,51.40
2023-01-01T13:23:05.808Z,51.00
2023-01-01T13:25:32.465Z,50.80
2023-01-01T13:28:00.285Z,50.90
2023-01-01T13:30:36.930Z,50.90
2023-01-01T13:33:36.763Z,50.80
2023-01-01T13:36:09.569Z,50.70
2023-01-01T13:38:52.544Z,50.90
2023-01-01T13:41:41.134Z,51.00
2023-01-01T13:44:07.720Z,50.90
2023-01-01T13:46:43.814Z,51.30
2023-01-01T13:49:22.735Z,50.70
2023-01-01T13:52:24.739Z,50.80
2023-01-01T13:55:22.127Z,50.90
2023-01-01T13:58:20.135Z,51.00
2023-01-01T14:01:18.618Z,50.90
2023-01-01T14:03:51.890Z,51.00
2023-01-01T14:06:32.468Z,51.00
2023-01-01T14:09:06.873Z,51.00
2023-01-01T14:11:33.579Z,51.10
2023-01-01T14:14:00.184Z,51.40
2023-01-01T14:16:28.468Z,51.30
2023-01-01T14:19:00.755Z,51.40
2023-01-01T14:21:31.925Z,51.40
2023-01-01T14:24:03.467Z,51.40
2023-01-01T14:26:32.061Z,51.40
2023-01-01T14:29:01.617Z,51.60
2023-01-01T14:31:31.962Z,51.70
2023-01-01T14:33:58.582Z,51.80
2023-01-01T14:36:27.938Z,51.80
2023-01-01T14:38:57.053Z,51.80
2023-01-01T14:41:37.540Z,51.80
2023-01-01T14:44:27.620Z,51.70
2023-01-01T14:46:54.797Z,52.00
2023-01-01T14:49:42.386Z,52.30
2023-01-01T14:52:16.935Z,52.20
2023-01-01T14:54:45.866Z,52.30
2023-01-01T14:57:30.567Z,52.40
2023-01-01T14:59:57.241Z,52.30
2023-01-01T15:02:26.354Z,52.50
2023-01-01T15:04:53.114Z,52.60
2023-01-01T15:07:25.622Z,52.70
2023-01-01T15:09:54.069Z,52.60
2023-01-01T15:12:21.625Z,52.80
2023-01-01T15:14:50.924Z,52.90
2023-01-01T15:17:20.006Z,52.90
2023-01-01T15:20:01.373Z,53.10
2023-01-01T15:22:38.932Z,53.30
2023-01-01T15:25:12.660Z,53.60
2023-01-01T15:27:39.308Z,53.90
2023-01-01T15:30:13.481Z,54.20
2023-01-01T15:32:40.778Z,54.30
2023-01-01T15:35:31.693Z,54.40
2023-01-01T15:38:18.936Z,54.50
2023-01-01T15:40:51.060Z,54.60
2023-01-01T15:43:25.086Z,54.90
2023-01-01T15:46:14.328Z,55.20
2023-01-01T15:48:50.044Z,55.40
2023-01-01T15:51:25.531Z,55.80
2023-01-01T15:54:01.111Z,56.00
2023-01-01T15:56:30.569Z,56.20
2023-01-01T15:59:27.491Z,56.50
2023-01-01T16:02:05.586Z,56.90
2023-01-01T16:04:32.651Z,57.00
2023-01-01T16:07:00.104Z,57.30
2023-01-01T16:09:26.886Z,57.50
2023-01-01T16:11:55.725Z,57.60
2023-01-01T16:14:23.341Z,57.90
2023-01-01T16:16:57.154Z,58.10
2023-01-01T16:19:24.545Z,58.30
2023-01-01T16:21:51.148Z,58.50
2023-01-01T16:24:19.481Z,58.60
2023-01-01T16:26:47.238Z,58.60
2023-01-01T16:29:14.193Z,58.70
2023-01-01T16:31:41.500Z,58.90
2023-01-01T16:34:10.991Z,59.00
2023-01-01T16:36:37.635Z,59.20
2023-01-01T16:39:04.253Z,59.30
2023-01-01T16:41:30.889Z,59.50
2023-01-01T16:43:57.905Z,59.70
2023-01-01T16:46:25.857Z,60.00
2023-01-01T16:48:52.477Z,60.20
2023-01-01T16:51:29.584Z,60.40
2023-01-01T16:53:57.401Z,60.90
2023-01-01T16:56:24.123Z,60.80
2023-01-01T16:58:54.226Z,61.00
2023-01-01T17:01:25.417Z,61.20
2023-01-01T17:03:52.456Z,61.40
2023-01-01T17:06:19.745Z,61.70
2023-01-01T17:08:46.481Z,62.00
2023-01-01T17:11:18.186Z,62.20
2023-01-01T17:13:46.890Z,62.60
2023-01-01T17:16:19.375Z,62.80
2023-01-01T17:21:40.173Z,63.10
2023-01-01T17:24:07.316Z,63.10
2023-01-01T17:26:33.958Z,63.30
2023-01-01T17:29:01.182Z,63.40
2023-01-01T17:31:28.981Z,63.40
2023-01-01T17:33:56.206Z,63.50
2023-01-01T17:36:23.115Z,63.70
2023-01-01T17:38:49.741Z,63.80
2023-01-01T17:41:17.235Z,63.90
2023-01-01T17:43:45.979Z,64.10
2023-01-01T17:46:23.991Z,64.20
2023-01-01T17:48:51.050Z,64.30
2023-01-01T17:51:18.711Z,64.40
2023-01-01T17:53:45.667Z,64.60
2023-01-01T17:56:14.745Z,64.70
2023-01-01T17:58:42.793Z,64.90
2023-01-01T18:01:21.628Z,65.00
2023-01-01T18:03:56.583Z,65.30
2023-01-01T18:06:23.808Z,65.30
2023-01-01T18:08:55.892Z,65.40
2023-01-01T18:11:23.466Z,65.70
2023-01-01T18:13:50.188Z,65.70
2023-01-01T18:16:17.079Z,65.80
2023-01-01T18:18:44.315Z,66.00
2023-01-01T18:21:19.499Z,66.20
2023-01-01T18:23:46.322Z,66.40
2023-01-01T18:26:13.075Z,66.40
2023-01-01T18:28:39.734Z,66.50
2023-01-01T18:31:14.056Z,66.60
2023-01-01T18:33:41.473Z,66.70
2023-01-01T18:36:09.614Z,66.80
2023-01-01T18:38:36.594Z,67.00
2023-01-01T18:41:14.932Z,67.10
2023-01-01T18:43:41.666Z,67.30
2023-01-01T18:46:09.810Z,67.30
2023-01-01T18:48:37.227Z,67.40
2023-01-01T18:51:14.737Z,67.50
2023-01-01T18:53:41.375Z,67.90
2023-01-01T18:56:14.158Z,67.80
2023-01-01T18:58:42.715Z,68.10
2023-01-01T19:01:21.829Z,67.90
2023-01-01T19:03:50.626Z,68.30
2023-01-01T19:06:22.807Z,68.30
2023-01-01T19:08:50.598Z,68.50
2023-01-01T19:11:21.965Z,68.60
2023-01-01T19:13:51.329Z,68.90
2023-01-01T19:16:29.659Z,68.90
2023-01-01T19:19:10.581Z,69.30
2023-01-01T19:21:39.528Z,69.30
2023-01-01T19:24:14.784Z,69.10
2023-01-01T19:26:41.391Z,69.30
2023-01-01T19:29:21.927Z,69.10
2023-01-01T19:31:53.800Z,69.50
2023-01-01T19:34:21.852Z,69.40
2023-01-01T19:36:48.699Z,69.30
2023-01-01T19:39:15.968Z,69.30
2023-01-01T19:41:43.131Z,69.50
2023-01-01T19:44:10.647Z,69.60
2023-01-01T19:46:37.427Z,69.60
2023-01-01T19:49:04.309Z,69.70
2023-01-01T19:51:30.966Z,69.80
2023-01-01T19:53:57.557Z,69.70
2023-01-01T19:56:24.318Z,69.70
2023-01-01T19:58:50.925Z,69.70
2023-01-01T20:01:17.802Z,69.80
2023-01-01T20:04:00.070Z,69.80
2023-01-01T20:06:27.188Z,69.70
2023-01-01T20:08:54.773Z,69.70
2023-01-01T20:11:21.449Z,69.90
2023-01-01T20:13:48.276Z,69.90
2023-01-01T20:16:14.944Z,70.10
2023-01-01T20:18:41.550Z,69.80
2023-01-01T20:21:27.248Z,69.50
2023-01-01T20:23:55.353Z,69.20
2023-01-01T20:26:23.766Z,69.10
2023-01-01T20:29:09.359Z,69.00
2023-01-01T20:31:36.405Z,68.90
2023-01-01T20:34:03.420Z,68.80
2023-01-01T20:36:48.660Z,68.80
2023-01-01T20:39:15.244Z,68.90
2023-01-01T20:41:41.997Z,68.80
2023-01-01T20:44:08.591Z,68.90
2023-01-01T20:46:36.113Z,69.00
2023-01-01T20:49:02.847Z,69.10
2023-01-01T20:51:29.515Z,69.20
2023-01-01T20:53:56.371Z,69.30
2023-01-01T20:56:23.175Z,69.50
2023-01-01T20:58:57.437Z,69.60
2023-01-01T21:01:26.248Z,69.70
2023-01-01T21:03:53.104Z,69.70
2023-01-01T21:06:24.536Z,69.70
2023-01-01T21:08:51.824Z,69.80
2023-01-01T21:11:18.586Z,69.80
2023-01-01T21:13:45.587Z,70.00
2023-01-01T21:16:22.454Z,70.00
2023-01-01T21:18:50.366Z,70.30
2023-01-01T21:21:23.499Z,70.10
2023-01-01T21:23:52.523Z,70.30
2023-01-01T21:26:34.872Z,70.20
2023-01-01T21:29:07.761Z,70.60
2023-01-01T21:31:38.055Z,70.40
2023-01-01T21:34:34.456Z,70.40
2023-01-01T21:37:42.789Z,70.60
2023-01-01T21:40:48.861Z,70.50
2023-01-01T21:43:33.978Z,70.30
2023-01-01T21:46:06.844Z,70.30
2023-01-01T21:49:02.867Z,70.30
2023-01-01T21:51:42.193Z,70.20
2023-01-01T21:54:14.354Z,70.10
2023-01-01T21:56:43.276Z,70.10
2023-01-01T21:59:28.209Z,70.10
2023-01-01T22:02:04.196Z,70.20
2023-01-01T22:04:36.747Z,70.20
2023-01-01T22:07:55.953Z,70.20
2023-01-01T22:10:10.080Z,70.10
2023-01-01T22:12:37.052Z,70.10
2023-01-01T22:15:25.102Z,70.00
2023-01-01T22:18:12.045Z,70.00
2023-01-01T22:20:40.590Z,70.00
2023-01-01T22:23:40.323Z,70.10
2023-01-01T22:26:24.431Z,70.30
2023-01-01T22:29:04.151Z,70.30
2023-01-01T22:31:33.472Z,70.30
2023-01-01T22:34:02.120Z,70.30
2023-01-01T22:36:30.534Z,70.40
2023-01-01T22:39:13.473Z,70.40
2023-01-01T22:41:42.248Z,70.50
2023-01-01T22:44:10.687Z,70.30
2023-01-01T22:46:39.961Z,70.40
2023-01-01T22:49:32.678Z,70.40
2023-01-01T22:51:59.800Z,70.40
2023-01-01T22:54:26.376Z,70.40
2023-01-01T22:56:53.003Z,70.40
2023-01-01T22:59:19.615Z,70.40
2023-01-01T23:01:46.487Z,70.40
2023-01-01T23:04:13.197Z,70.50
2023-01-01T23:06:39.823Z,70.60
2023-01-01T23:09:08.303Z,70.60
2023-01-01T23:11:34.991Z,70.80
2023-01-01T23:14:20.382Z,70.90
2023-01-01T23:16:46.987Z,71.00
2023-01-01T23:19:13.647Z,71.00
2023-01-01T23:21:42.304Z,71.00
2023-01-01T23:24:13.619Z,71.10
2023-01-01T23:26:41.085Z,71.20
2023-01-01T23:29:09.965Z,71.20
2023-01-01T23:31:39.120Z,71.30
2023-01-01T23:34:06.249Z,71.30
2023-01-01T23:36:33.772Z,71.30
2023-01-01T23:39:00.618Z,71.30
2023-01-01T23:41:27.290Z,71.30
2023-01-01T23:43:53.960Z,71.30
2023-01-01T23:46:20.694Z,71.30
2023-01-01T23:48:48.540Z,71.30
2023-01-01T23:51:16.429Z,71.30
2023-01-01T23:53:43.038Z,71.30
2023-01-01T23:56:09.685Z,71.30
2023-01-01T23:58:36.363Z,71.20
